sensor_id;sensor_type;location;lat;lon;timestamp;pressure;altitude;pressure_sealevel;temperature;humidity
75936;BME280;64614;32.062;34.834;2023-01-15T00:01:01;101333.13;;;20.59;55.78
75936;BME280;64614;32.062;34.834;2023-01-15T00:03:28;101327.69;;;20.59;55.82
75936;BME280;64614;32.062;34.834;2023-01-15T00:05:54;101325.50;;;20.61;55.49
75936;BME280;64614;32.062;34.834;2023-01-15T00:08:19;101318.44;;;20.55;56.13
75936;BME280;64614;32.062;34.834;2023-01-15T00:10:45;101317.91;;;20.53;56.13
75936;BME280;64614;32.062;34.834;2023-01-15T00:13:11;101318.72;;;20.54;56.22
75936;BME280;64614;32.062;34.834;2023-01-15T00:15:36;101319.00;;;20.52;56.52
75936;BME280;64614;32.062;34.834;2023-01-15T00:18:03;101320.91;;;20.51;56.25
75936;BME280;64614;32.062;34.834;2023-01-15T00:20:29;101324.19;;;20.54;56.47
75936;BME280;64614;32.062;34.834;2023-01-15T00:22:54;101322.81;;;20.51;56.49
75936;BME280;64614;32.062;34.834;2023-01-15T00:25:20;101320.63;;;20.53;56.37
75936;BME280;64614;32.062;34.834;2023-01-15T00:28:05;101312.72;;;20.51;56.66
75936;BME280;64614;32.062;34.834;2023-01-15T00:30:31;101292.53;;;20.53;56.44
75936;BME280;64614;32.062;34.834;2023-01-15T00:32:57;101285.69;;;20.55;56.00
75936;BME280;64614;32.062;34.834;2023-01-15T00:35:24;101277.47;;;20.60;55.80
75936;BME280;64614;32.062;34.834;2023-01-15T00:37:50;101276.94;;;20.58;55.75
75936;BME280;64614;32.062;34.834;2023-01-15T00:40:18;101281.53;;;20.63;55.45
75936;BME280;64614;32.062;34.834;2023-01-15T00:42:44;101281.28;;;20.64;55.60
75936;BME280;64614;32.062;34.834;2023-01-15T00:45:11;101280.69;;;20.67;55.15
75936;BME280;64614;32.062;34.834;2023-01-15T00:47:42;101290.56;;;20.63;55.19
75936;BME280;64614;32.062;34.834;2023-01-15T00:50:12;101278.03;;;20.57;55.94
75936;BME280;64614;32.062;34.834;2023-01-15T00:52:39;101279.94;;;20.62;55.59
75936;BME280;64614;32.062;34.834;2023-01-15T00:55:06;101282.91;;;20.60;55.68
75936;BME280;64614;32.062;34.834;2023-01-15T00:57:32;101294.16;;;20.54;56.96
75936;BME280;64614;32.062;34.834;2023-01-15T00:59:58;101286.22;;;20.57;56.82
75936;BME280;64614;32.062;34.834;2023-01-15T01:02:24;101280.19;;;20.60;56.92
75936;BME280;64614;32.062;34.834;2023-01-15T01:04:50;101273.09;;;20.59;57.06
75936;BME280;64614;32.062;34.834;2023-01-15T01:07:16;101269.63;;;20.54;57.27
75936;BME280;64614;32.062;34.834;2023-01-15T01:09:43;101270.13;;;20.56;57.10
75936;BME280;64614;32.062;34.834;2023-01-15T01:12:10;101272.06;;;20.50;57.56
75936;BME280;64614;32.062;34.834;2023-01-15T01:14:36;101272.59;;;20.52;57.86
75936;BME280;64614;32.062;34.834;2023-01-15T01:17:03;101259.53;;;20.49;57.86
75936;BME280;64614;32.062;34.834;2023-01-15T01:19:28;101272.06;;;20.50;57.86
75936;BME280;64614;32.062;34.834;2023-01-15T01:21:56;101263.06;;;20.49;57.93
75936;BME280;64614;32.062;34.834;2023-01-15T01:24:24;101269.63;;;20.54;57.98
75936;BME280;64614;32.062;34.834;2023-01-15T01:26:50;101259.25;;;20.50;58.09
75936;BME280;64614;32.062;34.834;2023-01-15T01:29:20;101269.31;;;20.55;57.93
75936;BME280;64614;32.062;34.834;2023-01-15T01:31:47;101264.97;;;20.54;56.97
75936;BME280;64614;32.062;34.834;2023-01-15T01:34:13;101268.22;;;20.56;57.12
75936;BME280;64614;32.062;34.834;2023-01-15T01:36:40;101266.84;;;20.59;56.34
75936;BME280;64614;32.062;34.834;2023-01-15T01:39:09;101261.66;;;20.57;56.85
75936;BME280;64614;32.062;34.834;2023-01-15T01:41:36;101250.75;;;20.57;56.60
75936;BME280;64614;32.062;34.834;2023-01-15T01:46:50;101249.94;;;20.57;55.96
75936;BME280;64614;32.062;34.834;2023-01-15T01:49:17;101239.59;;;20.54;56.49
75936;BME280;64614;32.062;34.834;2023-01-15T01:51:46;101246.94;;;20.53;56.08
75936;BME280;64614;32.062;34.834;2023-01-15T01:54:17;101258.97;;;20.52;57.12
75936;BME280;64614;32.062;34.834;2023-01-15T01:56:44;101258.16;;;20.51;58.21
75936;BME280;64614;32.062;34.834;2023-01-15T01:59:10;101250.22;;;20.50;57.85
75936;BME280;64614;32.062;34.834;2023-01-15T02:01:36;101259.00;;;20.47;57.89
75936;BME280;64614;32.062;34.834;2023-01-15T02:04:05;101245.63;;;20.45;57.64
75936;BME280;64614;32.062;34.834;2023-01-15T02:06:32;101259.00;;;20.47;57.93
75936;BME280;64614;32.062;34.834;2023-01-15T02:08:58;101245.06;;;20.54;57.84
75936;BME280;64614;32.062;34.834;2023-01-15T02:11:24;101249.72;;;20.48;58.13
75936;BME280;64614;32.062;34.834;2023-01-15T02:13:59;101246.16;;;20.47;58.29
75936;BME280;64614;32.062;34.834;2023-01-15T02:16:36;101249.19;;;20.46;58.27
75936;BME280;64614;32.062;34.834;2023-01-15T02:19:36;101256.28;;;20.47;58.09
75936;BME280;64614;32.062;34.834;2023-01-15T02:28:09;101254.63;;;20.46;58.10
75936;BME280;64614;32.062;34.834;2023-01-15T02:30:46;101254.66;;;20.41;57.83
75936;BME280;64614;32.062;34.834;2023-01-15T02:35:44;101243.69;;;20.51;57.68
75936;BME280;64614;32.062;34.834;2023-01-15T02:38:14;101249.75;;;20.43;58.08
75936;BME280;64614;32.062;34.834;2023-01-15T02:40:41;101256.81;;;20.44;58.16
75936;BME280;64614;32.062;34.834;2023-01-15T02:43:09;101252.72;;;20.46;57.92
75936;BME280;64614;32.062;34.834;2023-01-15T02:45:40;101252.47;;;20.43;58.27
75936;BME280;64614;32.062;34.834;2023-01-15T02:48:08;101262.03;;;20.40;58.40
75936;BME280;64614;32.062;34.834;2023-01-15T02:50:39;101254.66;;;20.41;58.24
75936;BME280;64614;32.062;34.834;2023-01-15T02:53:08;101259.03;;;20.42;58.32
75936;BME280;64614;32.062;34.834;2023-01-15T02:55:39;101259.84;;;20.42;58.49
75936;BME280;64614;32.062;34.834;2023-01-15T02:58:09;101251.97;;;20.35;58.50
75936;BME280;64614;32.062;34.834;2023-01-15T03:00:41;101252.81;;;20.36;58.46
75936;BME280;64614;32.062;34.834;2023-01-15T03:03:20;101261.25;;;20.34;58.28
75936;BME280;64614;32.062;34.834;2023-01-15T03:06:04;101262.91;;;20.30;58.52
75936;BME280;64614;32.062;34.834;2023-01-15T03:08:32;101253.09;;;20.29;58.78
75936;BME280;64614;32.062;34.834;2023-01-15T03:11:09;101255.53;;;20.31;58.72
75936;BME280;64614;32.062;34.834;2023-01-15T03:24:29;101269.66;;;20.43;56.33
75936;BME280;64614;32.062;34.834;2023-01-15T03:26:56;101279.78;;;20.38;58.57
75936;BME280;64614;32.062;34.834;2023-01-15T03:29:24;101276.19;;;20.47;56.67
75936;BME280;64614;32.062;34.834;2023-01-15T03:31:52;101277.59;;;20.40;55.25
75936;BME280;64614;32.062;34.834;2023-01-15T03:34:18;101295.38;;;20.32;55.93
75936;BME280;64614;32.062;34.834;2023-01-15T03:36:44;101293.44;;;20.32;56.70
75936;BME280;64614;32.062;34.834;2023-01-15T03:39:09;101289.63;;;20.33;57.87
75936;BME280;64614;32.062;34.834;2023-01-15T03:41:44;101292.94;;;20.30;58.16
75936;BME280;64614;32.062;34.834;2023-01-15T03:49:43;101309.00;;;20.32;57.85
75936;BME280;64614;32.062;34.834;2023-01-15T03:57:45;101321.00;;;20.31;57.25
75936;BME280;64614;32.062;34.834;2023-01-15T04:02:49;101324.59;;;20.21;57.14
75936;BME280;64614;32.062;34.834;2023-01-15T04:05:17;101321.88;;;20.16;57.20
75936;BME280;64614;32.062;34.834;2023-01-15T04:07:45;101331.72;;;20.12;57.27
75936;BME280;64614;32.062;34.834;2023-01-15T04:10:11;101331.72;;;20.07;57.26
75936;BME280;64614;32.062;34.834;2023-01-15T04:12:37;101334.72;;;20.10;56.95
75936;BME280;64614;32.062;34.834;2023-01-15T04:15:03;101333.09;;;20.09;56.80
75936;BME280;64614;32.062;34.834;2023-01-15T04:17:29;101332.00;;;20.05;56.57
75936;BME280;64614;32.062;34.834;2023-01-15T04:19:54;101338.56;;;20.09;56.78
75936;BME280;64614;32.062;34.834;2023-01-15T04:22:20;101343.19;;;20.09;56.62
75936;BME280;64614;32.062;34.834;2023-01-15T04:24:46;101345.91;;;20.09;56.77
75936;BME280;64614;32.062;34.834;2023-01-15T04:27:11;101344.28;;;20.02;56.86
75936;BME280;64614;32.062;34.834;2023-01-15T04:29:37;101346.16;;;20.17;57.33
75936;BME280;64614;32.062;34.834;2023-01-15T04:32:03;101345.03;;;20.24;56.59
75936;BME280;64614;32.062;34.834;2023-01-15T04:34:29;101350.47;;;20.34;55.80
75936;BME280;64614;32.062;34.834;2023-01-15T04:36:55;101354.56;;;20.26;56.39
75936;BME280;64614;32.062;34.834;2023-01-15T04:39:21;101359.50;;;20.19;56.69
75936;BME280;64614;32.062;34.834;2023-01-15T04:41:47;101375.34;;;20.22;56.51
75936;BME280;64614;32.062;34.834;2023-01-15T04:44:33;101372.84;;;20.20;56.01
75936;BME280;64614;32.062;34.834;2023-01-15T04:46:59;101364.41;;;20.22;56.04
75936;BME280;64614;32.062;34.834;2023-01-15T04:49:26;101372.56;;;20.27;55.64
75936;BME280;64614;32.062;34.834;2023-01-15T04:51:51;101373.94;;;20.25;55.64
75936;BME280;64614;32.062;34.834;2023-01-15T04:54:18;101369.88;;;20.22;55.90
75936;BME280;64614;32.062;34.834;2023-01-15T04:56:46;101378.63;;;20.14;54.67
75936;BME280;64614;32.062;34.834;2023-01-15T04:59:13;101379.69;;;20.18;54.33
75936;BME280;64614;32.062;34.834;2023-01-15T05:01:40;101388.41;;;20.20;52.41
75936;BME280;64614;32.062;34.834;2023-01-15T05:04:06;101386.53;;;20.15;52.22
75936;BME280;64614;32.062;34.834;2023-01-15T05:06:32;101388.72;;;20.18;50.20
75936;BME280;64614;32.062;34.834;2023-01-15T05:08:58;101390.56;;;20.23;51.29
75936;BME280;64614;32.062;34.834;2023-01-15T05:11:24;101396.31;;;20.22;49.62
75936;BME280;64614;32.062;34.834;2023-01-15T05:13:50;101402.59;;;20.22;50.17
75936;BME280;64614;32.062;34.834;2023-01-15T05:16:18;101408.06;;;20.22;49.15
75936;BME280;64614;32.062;34.834;2023-01-15T05:18:45;101414.28;;;20.28;49.74
75936;BME280;64614;32.062;34.834;2023-01-15T05:21:20;101399.59;;;20.24;47.07
75936;BME280;64614;32.062;34.834;2023-01-15T05:23:50;101401.47;;;20.28;47.43
75936;BME280;64614;32.062;34.834;2023-01-15T05:26:17;101397.94;;;20.33;48.84
75936;BME280;64614;32.062;34.834;2023-01-15T05:28:43;101398.72;;;20.33;48.83
75936;BME280;64614;32.062;34.834;2023-01-15T05:31:11;101404.69;;;20.46;47.88
75936;BME280;64614;32.062;34.834;2023-01-15T05:33:39;101404.66;;;20.56;48.72
75936;BME280;64614;32.062;34.834;2023-01-15T05:36:07;101404.63;;;20.61;48.11
75936;BME280;64614;32.062;34.834;2023-01-15T05:38:34;101404.88;;;20.65;48.59
75936;BME280;64614;32.062;34.834;2023-01-15T05:41:03;101413.88;;;20.71;48.17
75936;BME280;64614;32.062;34.834;2023-01-15T05:43:49;101417.94;;;20.84;47.00
75936;BME280;64614;32.062;34.834;2023-01-15T05:46:15;101417.63;;;20.90;47.71
75936;BME280;64614;32.062;34.834;2023-01-15T05:48:40;101431.56;;;20.84;45.75
75936;BME280;64614;32.062;34.834;2023-01-15T05:51:06;101426.91;;;20.89;45.68
75936;BME280;64614;32.062;34.834;2023-01-15T05:53:32;101421.66;;;20.98;45.91
75936;BME280;64614;32.062;34.834;2023-01-15T05:56:05;101428.94;;;20.58;44.28
75936;BME280;64614;32.062;34.834;2023-01-15T05:58:31;101437.47;;;19.12;45.63
75936;BME280;64614;32.062;34.834;2023-01-15T06:00:57;101446.25;;;19.60;43.93
75936;BME280;64614;32.062;34.834;2023-01-15T06:03:24;101438.91;;;20.07;42.96
75936;BME280;64614;32.062;34.834;2023-01-15T06:05:54;101439.69;;;20.18;41.85
75936;BME280;64614;32.062;34.834;2023-01-15T06:08:22;101449.69;;;20.48;43.10
75936;BME280;64614;32.062;34.834;2023-01-15T06:10:49;101456.34;;;20.97;43.37
75936;BME280;64614;32.062;34.834;2023-01-15T06:13:16;101449.47;;;21.10;43.53
75936;BME280;64614;32.062;34.834;2023-01-15T06:15:43;101455.28;;;21.38;43.78
75936;BME280;64614;32.062;34.834;2023-01-15T06:18:09;101432.50;;;21.53;43.65
75936;BME280;64614;32.062;34.834;2023-01-15T06:20:35;101450.44;;;21.30;43.46
75936;BME280;64614;32.062;34.834;2023-01-15T06:23:01;101449.84;;;21.38;43.74
75936;BME280;64614;32.062;34.834;2023-01-15T06:25:26;101450.38;;;21.35;44.25
75936;BME280;64614;32.062;34.834;2023-01-15T06:27:52;101457.19;;;21.38;44.53
75936;BME280;64614;32.062;34.834;2023-01-15T06:30:18;101466.75;;;21.40;44.73
75936;BME280;64614;32.062;34.834;2023-01-15T06:32:44;101455.25;;;21.43;44.73
75936;BME280;64614;32.062;34.834;2023-01-15T06:35:09;101459.19;;;21.32;45.03
75936;BME280;64614;32.062;34.834;2023-01-15T06:37:36;101462.72;;;21.33;45.24
75936;BME280;64614;32.062;34.834;2023-01-15T06:40:02;101464.38;;;21.28;45.57
75936;BME280;64614;32.062;34.834;2023-01-15T06:42:28;101468.47;;;21.26;45.43
75936;BME280;64614;32.062;34.834;2023-01-15T06:45:12;101464.97;;;21.20;45.62
75936;BME280;64614;32.062;34.834;2023-01-15T06:47:56;101469.38;;;21.16;45.56
75936;BME280;64614;32.062;34.834;2023-01-15T06:50:23;101470.50;;;21.10;45.69
75936;BME280;64614;32.062;34.834;2023-01-15T06:52:50;101464.22;;;21.09;45.74
75936;BME280;64614;32.062;34.834;2023-01-15T06:55:15;101469.66;;;21.09;46.16
75936;BME280;64614;32.062;34.834;2023-01-15T06:57:43;101459.81;;;21.13;46.07
75936;BME280;64614;32.062;34.834;2023-01-15T07:00:10;101460.38;;;21.16;46.25
75936;BME280;64614;32.062;34.834;2023-01-15T07:02:36;101468.81;;;21.19;45.48
75936;BME280;64614;32.062;34.834;2023-01-15T07:05:03;101467.22;;;21.08;45.53
75936;BME280;64614;32.062;34.834;2023-01-15T07:07:29;101473.78;;;21.07;45.26
75936;BME280;64614;32.062;34.834;2023-01-15T07:09:55;101468.31;;;21.07;44.29
75936;BME280;64614;32.062;34.834;2023-01-15T07:12:21;101472.44;;;21.04;44.06
75936;BME280;64614;32.062;34.834;2023-01-15T07:14:47;101478.44;;;21.01;45.53
75936;BME280;64614;32.062;34.834;2023-01-15T07:17:13;101465.59;;;21.07;45.84
75936;BME280;64614;32.062;34.834;2023-01-15T07:19:39;101474.38;;;20.98;46.28
75936;BME280;64614;32.062;34.834;2023-01-15T07:22:06;101470.25;;;21.01;45.82
75936;BME280;64614;32.062;34.834;2023-01-15T07:24:32;101463.41;;;21.09;45.88
75936;BME280;64614;32.062;34.834;2023-01-15T07:26:58;101471.84;;;21.07;45.77
75936;BME280;64614;32.062;34.834;2023-01-15T07:29:24;101465.88;;;21.05;45.71
75936;BME280;64614;32.062;34.834;2023-01-15T07:31:50;101456.81;;;21.15;45.70
75936;BME280;64614;32.062;34.834;2023-01-15T07:34:16;101460.63;;;21.14;45.48
75936;BME280;64614;32.062;34.834;2023-01-15T07:36:42;101452.19;;;21.10;45.67
75936;BME280;64614;32.062;34.834;2023-01-15T07:39:09;101448.91;;;21.13;45.26
75936;BME280;64614;32.062;34.834;2023-01-15T07:41:35;101455.41;;;21.18;44.92
75936;BME280;64614;32.062;34.834;2023-01-15T07:44:20;101457.09;;;21.13;45.11
75936;BME280;64614;32.062;34.834;2023-01-15T07:50:04;101456.19;;;21.28;45.39
75936;BME280;64614;32.062;34.834;2023-01-15T07:52:30;101464.41;;;21.23;45.02
75936;BME280;64614;32.062;34.834;2023-01-15T07:54:55;101462.06;;;21.06;46.00
75936;BME280;64614;32.062;34.834;2023-01-15T07:57:21;101465.56;;;21.12;45.91
75936;BME280;64614;32.062;34.834;2023-01-15T07:59:48;101440.41;;;21.15;45.61
75936;BME280;64614;32.062;34.834;2023-01-15T08:02:14;101442.19;;;21.35;44.62
75936;BME280;64614;32.062;34.834;2023-01-15T08:04:40;101437.16;;;21.58;44.58
75936;BME280;64614;32.062;34.834;2023-01-15T08:07:07;101446.31;;;21.33;45.07
75936;BME280;64614;32.062;34.834;2023-01-15T08:09:33;101451.84;;;21.22;45.89
75936;BME280;64614;32.062;34.834;2023-01-15T08:11:59;101444.50;;;21.18;45.84
75936;BME280;64614;32.062;34.834;2023-01-15T08:14:44;101441.50;;;21.19;46.04
75936;BME280;64614;32.062;34.834;2023-01-15T08:17:28;101444.19;;;21.24;45.88
75936;BME280;64614;32.062;34.834;2023-01-15T08:19:54;101436.28;;;21.23;45.35
75936;BME280;64614;32.062;34.834;2023-01-15T08:22:20;101425.00;;;21.35;45.52
75936;BME280;64614;32.062;34.834;2023-01-15T08:24:45;101424.06;;;21.50;44.52
75936;BME280;64614;32.062;34.834;2023-01-15T08:27:11;101417.84;;;21.39;45.13
75936;BME280;64614;32.062;34.834;2023-01-15T08:29:39;101415.09;;;21.44;45.18
75936;BME280;64614;32.062;34.834;2023-01-15T08:32:05;101416.91;;;21.54;44.62
75936;BME280;64614;32.062;34.834;2023-01-15T08:34:32;101405.97;;;21.54;44.97
75936;BME280;64614;32.062;34.834;2023-01-15T08:36:57;101401.84;;;21.56;44.66
75936;BME280;64614;32.062;34.834;2023-01-15T08:39:28;101401.34;;;21.54;45.29
75936;BME280;64614;32.062;34.834;2023-01-15T08:41:54;101407.75;;;21.39;45.65
75936;BME280;64614;32.062;34.834;2023-01-15T08:44:21;101413.28;;;21.29;46.04
75936;BME280;64614;32.062;34.834;2023-01-15T08:46:48;101405.38;;;21.27;45.94
75936;BME280;64614;32.062;34.834;2023-01-15T08:49:15;101401.00;;;21.26;45.66
75936;BME280;64614;32.062;34.834;2023-01-15T08:51:43;101390.88;;;21.27;45.65
75936;BME280;64614;32.062;34.834;2023-01-15T08:54:09;101408.06;;;21.33;45.70
75936;BME280;64614;32.062;34.834;2023-01-15T08:56:34;101392.50;;;21.33;44.80
75936;BME280;64614;32.062;34.834;2023-01-15T08:59:04;101391.66;;;21.33;44.93
75936;BME280;64614;32.062;34.834;2023-01-15T09:01:30;101385.22;;;21.18;45.13
75936;BME280;64614;32.062;34.834;2023-01-15T09:03:56;101390.69;;;21.18;45.51
75936;BME280;64614;32.062;34.834;2023-01-15T09:06:23;101390.94;;;21.22;45.49
75936;BME280;64614;32.062;34.834;2023-01-15T09:08:49;101381.31;;;21.29;45.59
75936;BME280;64614;32.062;34.834;2023-01-15T09:11:14;101371.94;;;21.41;45.31
75936;BME280;64614;32.062;34.834;2023-01-15T09:13:40;101367.31;;;21.41;45.20
75936;BME280;64614;32.062;34.834;2023-01-15T09:16:07;101361.56;;;21.38;44.67
75936;BME280;64614;32.062;34.834;2023-01-15T09:18:35;101354.56;;;21.26;45.00
75936;BME280;64614;32.062;34.834;2023-01-15T09:21:01;101349.59;;;21.34;45.18
75936;BME280;64614;32.062;34.834;2023-01-15T09:23:28;101347.91;;;21.38;44.92
75936;BME280;64614;32.062;34.834;2023-01-15T09:25:59;101347.03;;;21.42;43.57
75936;BME280;64614;32.062;34.834;2023-01-15T09:28:26;101338.34;;;21.40;44.34
75936;BME280;64614;32.062;34.834;2023-01-15T09:30:51;101338.09;;;21.37;44.40
75936;BME280;64614;32.062;34.834;2023-01-15T09:33:17;101339.72;;;21.38;44.52
75936;BME280;64614;32.062;34.834;2023-01-15T09:35:43;101332.59;;;21.42;44.60
75936;BME280;64614;32.062;34.834;2023-01-15T09:38:16;101323.59;;;21.41;44.79
75936;BME280;64614;32.062;34.834;2023-01-15T09:46:24;101297.78;;;21.23;45.52
75936;BME280;64614;32.062;34.834;2023-01-15T09:49:12;101304.56;;;21.26;45.10
75936;BME280;64614;32.062;34.834;2023-01-15T09:57:09;101299.25;;;21.40;45.37
75936;BME280;64614;32.062;34.834;2023-01-15T09:59:39;101283.41;;;21.42;44.95
75936;BME280;64614;32.062;34.834;2023-01-15T10:02:23;101275.75;;;21.39;45.21
75936;BME280;64614;32.062;34.834;2023-01-15T10:05:06;101271.13;;;21.39;44.90
75936;BME280;64614;32.062;34.834;2023-01-15T10:07:57;101267.53;;;21.44;45.16
75936;BME280;64614;32.062;34.834;2023-01-15T10:10:28;101265.91;;;21.43;44.85
75936;BME280;64614;32.062;34.834;2023-01-15T10:13:07;101267.78;;;21.48;44.94
75936;BME280;64614;32.062;34.834;2023-01-15T10:15:44;101259.09;;;21.40;45.17
75936;BME280;64614;32.062;34.834;2023-01-15T10:18:22;101254.91;;;21.48;44.75
75936;BME280;64614;32.062;34.834;2023-01-15T10:26:37;101261.84;;;21.40;44.91
75936;BME280;64614;32.062;34.834;2023-01-15T10:29:30;101262.69;;;21.36;44.86
75936;BME280;64614;32.062;34.834;2023-01-15T10:35:08;101246.25;;;21.41;44.75
75936;BME280;64614;32.062;34.834;2023-01-15T10:43:02;101247.81;;;21.47;44.71
75936;BME280;64614;32.062;34.834;2023-01-15T10:48:17;101222.47;;;21.41;43.66
75936;BME280;64614;32.062;34.834;2023-01-15T10:50:47;101219.50;;;21.38;43.95
75936;BME280;64614;32.062;34.834;2023-01-15T10:53:29;101207.19;;;21.40;43.67
75936;BME280;64614;32.062;34.834;2023-01-15T10:56:41;101227.09;;;21.46;44.53
75936;BME280;64614;32.062;34.834;2023-01-15T10:59:14;101215.31;;;21.45;45.10
75936;BME280;64614;32.062;34.834;2023-01-15T11:01:41;101220.56;;;21.42;45.11
75936;BME280;64614;32.062;34.834;2023-01-15T11:04:08;101223.06;;;21.38;45.46
75936;BME280;64614;32.062;34.834;2023-01-15T11:06:34;101211.81;;;21.40;45.81
75936;BME280;64614;32.062;34.834;2023-01-15T11:09:00;101225.56;;;21.35;45.93
75936;BME280;64614;32.062;34.834;2023-01-15T11:11:29;101227.66;;;21.43;45.74
75936;BME280;64614;32.062;34.834;2023-01-15T11:14:15;101208.22;;;21.44;45.48
75936;BME280;64614;32.062;34.834;2023-01-15T11:16:58;101208.75;;;21.47;44.86
75936;BME280;64614;32.062;34.834;2023-01-15T11:19:50;101195.66;;;21.43;45.99
75936;BME280;64614;32.062;34.834;2023-01-15T11:28:06;101201.34;;;21.47;46.33
75936;BME280;64614;32.062;34.834;2023-01-15T11:34:02;101203.06;;;21.43;46.76
75936;BME280;64614;32.062;34.834;2023-01-15T11:36:29;101202.94;;;21.53;46.42
75936;BME280;64614;32.062;34.834;2023-01-15T11:38:55;101203.44;;;21.55;45.89
75936;BME280;64614;32.062;34.834;2023-01-15T11:41:32;101196.19;;;21.45;46.51
75936;BME280;64614;32.062;34.834;2023-01-15T11:44:18;101198.94;;;21.45;46.34
75936;BME280;64614;32.062;34.834;2023-01-15T11:47:03;101201.63;;;21.51;46.29
75936;BME280;64614;32.062;34.834;2023-01-15T11:49:53;101188.81;;;21.46;46.50
75936;BME280;64614;32.062;34.834;2023-01-15T11:52:45;101201.97;;;21.44;46.42
75936;BME280;64614;32.062;34.834;2023-01-15T11:55:16;101200.25;;;21.48;46.24
75936;BME280;64614;32.062;34.834;2023-01-15T11:57:43;101187.19;;;21.45;46.27
75936;BME280;64614;32.062;34.834;2023-01-15T12:00:28;101194.28;;;21.46;46.26
75936;BME280;64614;32.062;34.834;2023-01-15T12:03:02;101180.63;;;21.46;46.32
75936;BME280;64614;32.062;34.834;2023-01-15T12:05:34;101186.25;;;21.55;46.07
75936;BME280;64614;32.062;34.834;2023-01-15T12:08:12;101184.31;;;21.60;45.92
75936;BME280;64614;32.062;34.834;2023-01-15T12:11:01;101177.22;;;21.59;46.10
75936;BME280;64614;32.062;34.834;2023-01-15T12:19:38;101197.25;;;21.74;45.44
75936;BME280;64614;32.062;34.834;2023-01-15T12:24:48;101191.31;;;21.67;45.48
75936;BME280;64614;32.062;34.834;2023-01-15T12:32:18;101192.94;;;21.68;45.01
75936;BME280;64614;32.062;34.834;2023-01-15T12:40:03;101194.06;;;21.67;45.25
75936;BME280;64614;32.062;34.834;2023-01-15T12:42:38;101199.06;;;21.59;44.63
75936;BME280;64614;32.062;34.834;2023-01-15T12:45:27;101202.59;;;21.60;44.86
75936;BME280;64614;32.062;34.834;2023-01-15T12:48:25;101196.88;;;21.62;45.23
75936;BME280;64614;32.062;34.834;2023-01-15T12:50:56;101206.28;;;21.74;45.13
75936;BME280;64614;32.062;34.834;2023-01-15T12:56:34;101208.59;;;21.86;44.86
75936;BME280;64614;32.062;34.834;2023-01-15T12:59:23;101198.53;;;21.82;44.46
75936;BME280;64614;32.062;34.834;2023-01-15T13:04:52;101204.16;;;21.90;44.34
75936;BME280;64614;32.062;34.834;2023-01-15T13:10:14;101213.97;;;21.91;44.46
75936;BME280;64614;32.062;34.834;2023-01-15T13:12:43;101214.19;;;21.76;44.85
75936;BME280;64614;32.062;34.834;2023-01-15T13:15:17;101199.47;;;21.72;44.98
75936;BME280;64614;32.062;34.834;2023-01-15T13:18:06;101206.84;;;21.71;44.67
75936;BME280;64614;32.062;34.834;2023-01-15T13:20:49;101207.72;;;21.67;44.64
75936;BME280;64614;32.062;34.834;2023-01-15T13:32:21;101202.72;;;21.74;45.21
75936;BME280;64614;32.062;34.834;2023-01-15T13:35:04;101197.84;;;21.71;44.73
75936;BME280;64614;32.062;34.834;2023-01-15T13:37:42;101191.56;;;21.70;44.83
75936;BME280;64614;32.062;34.834;2023-01-15T13:40:11;101212.66;;;21.65;45.60
75936;BME280;64614;32.062;34.834;2023-01-15T13:42:45;101204.06;;;21.52;45.06
75936;BME280;64614;32.062;34.834;2023-01-15T13:45:26;101206.47;;;21.29;44.62
75936;BME280;64614;32.062;34.834;2023-01-15T13:48:01;101215.06;;;21.18;44.38
75936;BME280;64614;32.062;34.834;2023-01-15T13:50:33;101224.13;;;21.13;44.28
75936;BME280;64614;32.062;34.834;2023-01-15T13:53:21;101229.16;;;21.30;44.55
75936;BME280;64614;32.062;34.834;2023-01-15T13:56:00;101226.41;;;21.30;44.65
75936;BME280;64614;32.062;34.834;2023-01-15T13:58:32;101232.69;;;21.31;45.03
75936;BME280;64614;32.062;34.834;2023-01-15T14:01:20;101237.13;;;21.26;45.00
75936;BME280;64614;32.062;34.834;2023-01-15T14:04:12;101230.78;;;21.55;45.22
75936;BME280;64614;32.062;34.834;2023-01-15T14:06:51;101230.22;;;21.58;44.79
75936;BME280;64614;32.062;34.834;2023-01-15T14:20:48;101242.09;;;21.43;44.97
75936;BME280;64614;32.062;34.834;2023-01-15T14:23:31;101244.28;;;21.47;45.30
75936;BME280;64614;32.062;34.834;2023-01-15T14:26:17;101242.19;;;21.38;45.17
75936;BME280;64614;32.062;34.834;2023-01-15T14:34:09;101253.91;;;21.39;45.12
75936;BME280;64614;32.062;34.834;2023-01-15T14:37:00;101247.94;;;21.37;45.26
75936;BME280;64614;32.062;34.834;2023-01-15T14:42:07;101255.59;;;21.35;45.31
75936;BME280;64614;32.062;34.834;2023-01-15T14:45:06;101245.78;;;21.34;44.84
75936;BME280;64614;32.062;34.834;2023-01-15T14:50:51;101243.09;;;21.28;45.14
75936;BME280;64614;32.062;34.834;2023-01-15T14:53:35;101255.06;;;21.33;45.18
75936;BME280;64614;32.062;34.834;2023-01-15T15:09:42;101250.53;;;21.23;45.42
75936;BME280;64614;32.062;34.834;2023-01-15T15:15:11;101255.75;;;21.19;45.45
75936;BME280;64614;32.062;34.834;2023-01-15T15:17:59;101265.84;;;21.19;45.59
75936;BME280;64614;32.062;34.834;2023-01-15T15:20:42;101264.47;;;21.21;45.38
75936;BME280;64614;32.062;34.834;2023-01-15T15:25:58;101269.69;;;21.18;45.71
75936;BME280;64614;32.062;34.834;2023-01-15T15:28:26;101276.53;;;21.15;45.46
75936;BME280;64614;32.062;34.834;2023-01-15T15:30:53;101272.75;;;21.11;45.69
75936;BME280;64614;32.062;34.834;2023-01-15T15:33:24;101276.06;;;21.08;45.74